Time;durP1;ratioP1;P1;durP2;ratioP2;P2;SDS_P1;SDS_P2;PMS_P1;PMS_P2;Temp;Humidity;BMP_temperature;BMP_pressure;BME280_temperature;BME280_humidity;BME280_pressure;Samples;Min_cycle;Max_cycle;Signal;HPM_P1;HPM_P2
2023/12/15 00:00:41;;;;;;;1.58;1.48;;;;;;;5.74;94.92;99934.53;5093509;28;20047;-72
2023/12/15 00:03:10;;;;;;;1.57;1.47;;;;;;;5.76;95.29;99932.06;5093441;28;20131;-72
2023/12/15 00:05:40;;;;;;;0.50;0.50;;;;;;;5.77;94.93;99946.41;5093138;28;20312;-73
2023/12/15 00:08:09;;;;;;;9.27;2.60;;;;;;;5.80;95.22;99941.44;5096090;28;20032;-73
2023/12/15 00:10:38;;;;;;;1.17;1.10;;;;;;;5.81;94.52;99933.84;5097319;28;20062;-73
2023/12/15 00:13:07;;;;;;;2.63;2.43;;;;;;;5.83;94.98;99941.50;5097045;28;20475;-73
2023/12/15 00:15:36;;;;;;;0.93;0.93;;;;;;;5.78;94.55;99927.88;5097244;28;20290;-73
2023/12/15 00:18:04;;;;;;;0.97;0.97;;;;;;;5.85;94.68;99948.34;5097019;28;20040;-73
2023/12/15 00:20:34;;;;;;;0.90;0.90;;;;;;;5.86;94.45;99954.25;5096131;28;20288;-73
2023/12/15 00:23:04;;;;;;;2.83;1.45;;;;;;;5.88;94.03;99956.00;5096912;28;20050;-73
2023/12/15 00:25:33;;;;;;;2.58;1.98;;;;;;;5.89;94.01;99972.91;5097172;28;20105;-73
2023/12/15 00:28:02;;;;;;;3.17;1.67;;;;;;;5.88;93.45;99975.38;5097235;28;20085;-73
2023/12/15 00:30:30;;;;;;;3.92;1.85;;;;;;;5.88;93.93;99970.31;5096849;28;20048;-73
2023/12/15 00:32:59;;;;;;;0.38;0.38;;;;;;;5.92;93.47;99974.66;5097344;28;20386;-73
2023/12/15 00:35:28;;;;;;;2.40;1.55;;;;;;;5.93;93.38;99978.88;5097015;28;20089;-73
2023/12/15 00:37:57;;;;;;;1.48;1.38;;;;;;;5.93;93.08;99976.34;5096939;28;20044;-73
2023/12/15 00:40:28;;;;;;;1.88;1.70;;;;;;;5.93;92.99;99979.75;5095577;28;20036;-73
2023/12/15 00:42:57;;;;;;;1.67;1.38;;;;;;;5.93;92.38;99994.09;5078797;28;20036;-73
2023/12/15 00:45:26;;;;;;;1.93;1.60;;;;;;;5.92;93.20;99987.31;5096599;28;20036;-73
2023/12/15 00:47:55;;;;;;;0.82;0.82;;;;;;;5.88;92.58;99993.13;5096872;28;20036;-74
2023/12/15 00:50:23;;;;;;;2.65;1.50;;;;;;;5.88;92.45;100000.72;5096625;28;20032;-73
2023/12/15 00:52:53;;;;;;;0.82;0.82;;;;;;;5.87;92.84;100007.47;5096180;28;20040;-73
2023/12/15 00:55:21;;;;;;;1.33;1.07;;;;;;;5.88;91.95;100015.91;5096432;28;20424;-72
2023/12/15 00:57:52;;;;;;;0.75;0.75;;;;;;;5.84;92.08;100009.03;5096160;28;20654;-73
2023/12/15 01:00:21;;;;;;;1.48;1.38;;;;;;;5.90;92.25;100029.50;5096421;28;20070;-73
2023/12/15 01:02:50;;;;;;;2.20;1.67;;;;;;;5.90;91.99;100029.50;5096072;28;20428;-73
2023/12/15 01:05:19;;;;;;;0.70;0.70;;;;;;;5.87;92.29;100031.94;5095972;28;20071;-73
2023/12/15 01:07:48;;;;;;;1.40;1.20;;;;;;;5.90;92.06;100034.56;5096172;28;20496;-72
2023/12/15 01:10:17;;;;;;;0.77;0.77;;;;;;;5.88;92.31;100031.09;5096373;28;20375;-73
2023/12/15 01:12:46;;;;;;;2.97;2.15;;;;;;;5.88;92.11;100036.19;5096808;28;20048;-73
2023/12/15 01:15:16;;;;;;;0.82;0.82;;;;;;;5.86;91.77;100027.69;5096229;28;20036;-73
2023/12/15 01:17:45;;;;;;;0.75;0.75;;;;;;;5.90;91.52;100034.56;5095690;28;20055;-72
2023/12/15 01:20:14;;;;;;;0.85;0.85;;;;;;;5.91;91.54;100033.72;5096136;28;20552;-72
2023/12/15 01:22:43;;;;;;;1.10;1.00;;;;;;;5.92;91.72;100043.06;5094899;28;20433;-73
2023/12/15 01:25:12;;;;;;;1.93;1.70;;;;;;;5.89;91.10;100032.84;5095743;28;20032;-73
2023/12/15 01:27:41;;;;;;;1.33;1.23;;;;;;;5.90;91.68;100054.81;5095563;28;20101;-73
2023/12/15 01:30:10;;;;;;;0.88;0.88;;;;;;;5.93;91.36;100044.75;5095304;28;20036;-73
2023/12/15 01:32:40;;;;;;;1.25;1.15;;;;;;;5.93;90.88;100055.75;5095642;28;20498;-73
2023/12/15 01:35:09;;;;;;;2.58;1.30;;;;;;;5.90;90.99;100048.06;5095860;28;20040;-74
2023/12/15 01:37:38;;;;;;;0.55;0.55;;;;;;;5.90;90.69;100059.91;5095559;28;20067;-73
2023/12/15 01:40:08;;;;;;;;;;;;;;;5.90;90.81;100059.91;5096136;28;20213;-73
2023/12/15 01:42:37;;;;;;;0.85;0.85;;;;;;;5.90;90.72;100064.97;5095684;28;19927;-73
2023/12/15 01:45:07;;;;;;;1.20;1.10;;;;;;;5.88;91.24;100066.56;5094307;28;20131;-73
2023/12/15 01:47:37;;;;;;;0.95;0.95;;;;;;;5.86;90.36;100064.00;5095536;28;20043;-73
2023/12/15 01:50:09;;;;;;;0.68;0.68;;;;;;;5.85;90.81;100072.44;5095898;28;20047;-73
2023/12/15 01:52:38;;;;;;;0.55;0.55;;;;;;;5.76;90.53;100059.50;5095519;28;20118;-72
2023/12/15 01:55:08;;;;;;;1.53;0.97;;;;;;;5.83;90.28;100073.19;5095174;28;20051;-72
2023/12/15 01:57:36;;;;;;;0.82;0.75;;;;;;;5.81;89.66;100074.81;5095353;28;20113;-73
2023/12/15 02:00:08;;;;;;;2.50;1.05;;;;;;;5.82;89.97;100071.47;5095348;28;20040;-72
2023/12/15 02:02:40;;;;;;;0.52;0.52;;;;;;;5.74;89.49;100065.34;5093854;28;20589;-73
2023/12/15 02:05:10;;;;;;;1.15;1.10;;;;;;;5.78;89.70;100074.75;5095094;28;20086;-73
2023/12/15 02:07:40;;;;;;;0.50;0.50;;;;;;;5.74;89.10;100067.88;5095513;28;20056;-73
2023/12/15 02:10:09;;;;;;;1.10;1.02;;;;;;;5.74;89.15;100083.06;5095141;28;20036;-73
2023/12/15 02:12:38;;;;;;;0.50;0.50;;;;;;;5.71;88.84;100083.03;5094680;28;20043;-72
2023/12/15 02:15:09;;;;;;;0.50;0.50;;;;;;;5.72;88.45;100089.78;5095065;28;20040;-72
2023/12/15 02:17:38;;;;;;;1.63;1.25;;;;;;;5.72;88.47;100089.78;5095306;28;20089;-73
2023/12/15 02:20:08;;;;;;;0.50;0.50;;;;;;;5.64;87.81;100078.63;5093516;28;20036;-73
2023/12/15 02:22:38;;;;;;;0.32;0.32;;;;;;;5.69;87.21;100099.81;5093714;28;20166;-73
2023/12/15 02:25:08;;;;;;;0.82;0.82;;;;;;;5.66;87.26;100097.25;5093867;28;20436;-73
2023/12/15 02:27:36;;;;;;;0.52;0.52;;;;;;;5.65;86.65;100103.09;5093272;28;20040;-73
2023/12/15 02:30:07;;;;;;;1.77;1.58;;;;;;;5.64;86.28;100103.94;5093954;28;20050;-74
2023/12/15 02:32:36;;;;;;;1.45;1.33;;;;;;;5.62;86.19;100108.94;5094935;28;20480;-73
2023/12/15 02:35:05;;;;;;;0.82;0.82;;;;;;;5.59;85.75;100113.91;5093805;28;20043;-73
2023/12/15 02:37:34;;;;;;;0.55;0.55;;;;;;;5.56;85.51;100110.47;5094308;28;20436;-73
2023/12/15 02:40:06;;;;;;;0.50;0.50;;;;;;;5.54;85.21;100114.66;5076752;28;20569;-72
2023/12/15 02:42:36;;;;;;;1.75;1.00;;;;;;;5.52;85.21;100116.28;5076449;28;20048;-72
2023/12/15 02:45:05;;;;;;;0.67;0.67;;;;;;;5.50;84.95;100120.41;5094238;28;20051;-73
2023/12/15 02:47:34;;;;;;;0.60;0.60;;;;;;;5.48;85.05;100124.59;5094595;28;20074;-73
2023/12/15 02:50:04;;;;;;;;;;;;;;;5.46;85.23;100123.69;5093566;28;20048;-72
2023/12/15 02:52:33;;;;;;;0.35;0.35;;;;;;;5.46;84.62;100128.75;5094313;28;19942;-72
2023/12/15 02:55:01;;;;;;;0.50;0.50;;;;;;;5.44;84.77;100131.25;5094111;28;20036;-72
2023/12/15 02:57:33;;;;;;;0.40;0.40;;;;;;;5.43;85.04;100138.00;5094198;28;20039;-73
2023/12/15 03:00:03;;;;;;;0.82;0.70;;;;;;;5.45;84.95;100144.78;5094342;28;20119;-73
2023/12/15 03:02:32;;;;;;;0.40;0.40;;;;;;;5.41;84.60;100147.22;5094054;28;20048;-73
2023/12/15 03:05:01;;;;;;;4.10;2.47;;;;;;;5.42;85.02;100146.38;5093944;28;20086;-73
2023/12/15 03:07:30;;;;;;;0.38;0.38;;;;;;;5.35;84.12;100144.50;5092985;28;20322;-73
2023/12/15 03:09:59;;;;;;;0.95;0.70;;;;;;;5.43;84.05;100159.91;5093978;28;20047;-73
2023/12/15 03:12:29;;;;;;;0.70;0.70;;;;;;;5.39;84.33;100158.97;5094201;28;20047;-72
2023/12/15 03:15:00;;;;;;;0.45;0.45;;;;;;;5.39;84.61;100166.56;5094059;28;20435;-72
2023/12/15 03:17:30;;;;;;;0.50;0.50;;;;;;;5.38;84.27;100172.44;5094476;28;20054;-72
2023/12/15 03:19:59;;;;;;;0.50;0.50;;;;;;;5.39;84.61;100175.84;5093610;28;20048;-73
2023/12/15 03:22:28;;;;;;;1.33;1.23;;;;;;;5.38;84.44;100180.03;5092993;28;20064;-73
2023/12/15 03:24:57;;;;;;;0.60;0.60;;;;;;;5.36;84.56;100186.72;5094066;28;20280;-73
2023/12/15 03:27:25;;;;;;;2.13;1.97;;;;;;;5.36;84.36;100196.84;5093934;28;20047;-73
2023/12/15 03:29:54;;;;;;;0.40;0.40;;;;;;;5.36;84.09;100196.00;5075625;28;20044;-73
2023/12/15 03:32:24;;;;;;;0.63;0.63;;;;;;;5.37;84.14;100205.31;5094024;28;20044;-73
2023/12/15 03:34:54;;;;;;;0.80;0.80;;;;;;;5.36;83.80;100201.91;5092629;28;20569;-73
2023/12/15 03:37:22;;;;;;;0.33;0.33;;;;;;;5.35;83.87;100210.31;5093537;28;20048;-75
2023/12/15 03:39:51;;;;;;;0.70;0.70;;;;;;;5.34;83.96;100203.53;5092570;28;20055;-73
2023/12/15 03:42:20;;;;;;;0.63;0.63;;;;;;;5.33;83.70;100201.81;5093758;28;20070;-72
2023/12/15 03:44:49;;;;;;;0.40;0.40;;;;;;;5.34;83.56;100207.75;5096796;28;20071;-73
2023/12/15 03:47:18;;;;;;;1.53;1.43;;;;;;;5.36;83.57;100206.09;5098066;28;20040;-73
2023/12/15 03:49:48;;;;;;;2.15;1.95;;;;;;;5.35;83.57;100212.84;5097669;28;20040;-73
2023/12/15 03:52:17;;;;;;;0.30;0.30;;;;;;;5.35;83.27;100220.44;5097663;28;20048;-73
2023/12/15 03:54:46;;;;;;;0.50;0.50;;;;;;;5.34;83.20;100223.78;5097539;28;20131;-73
2023/12/15 03:57:15;;;;;;;0.88;0.88;;;;;;;5.36;83.19;100229.75;5097737;28;20138;-73
2023/12/15 03:59:44;;;;;;;0.83;0.80;;;;;;;5.36;83.12;100237.34;5097291;28;20050;-72
2023/12/15 04:02:15;;;;;;;0.50;0.50;;;;;;;5.35;83.30;100235.63;5096398;28;20036;-73
2023/12/15 04:04:44;;;;;;;1.45;1.27;;;;;;;5.26;82.86;100225.22;5096376;28;20044;-73
2023/12/15 04:07:14;;;;;;;0.60;0.60;;;;;;;5.27;82.82;100234.56;5097535;28;20044;-72
2023/12/15 04:09:43;;;;;;;0.50;0.50;;;;;;;5.34;82.52;100246.56;5097686;28;20444;-72
2023/12/15 04:12:12;;;;;;;1.35;1.25;;;;;;;5.33;82.18;100256.63;5097230;28;20131;-72
2023/12/15 04:14:41;;;;;;;0.43;0.43;;;;;;;5.34;82.36;100254.16;5095861;28;20498;-72
2023/12/15 04:17:10;;;;;;;0.60;0.60;;;;;;;5.33;82.05;100265.09;5079224;28;20774;-73
2023/12/15 04:19:39;;;;;;;0.75;0.75;;;;;;;5.30;82.01;100266.69;5097696;28;20029;-73
2023/12/15 04:22:08;;;;;;;0.88;0.82;;;;;;;5.28;81.94;100264.09;5095989;28;20036;-73
2023/12/15 04:24:38;;;;;;;0.40;0.40;;;;;;;5.20;81.78;100260.50;5096891;28;20135;-73
2023/12/15 04:27:07;;;;;;;2.88;2.10;;;;;;;5.28;81.80;100264.09;5097226;28;20059;-73
2023/12/15 04:29:36;;;;;;;0.38;0.38;;;;;;;5.29;81.89;100268.34;5096954;28;20036;-73
2023/12/15 04:32:05;;;;;;;0.70;0.70;;;;;;;5.29;81.95;100267.47;5096607;28;20093;-73
2023/12/15 04:34:34;;;;;;;0.30;0.30;;;;;;;5.27;81.36;100275.03;5096773;28;20066;-73
2023/12/15 04:37:03;;;;;;;1.73;1.60;;;;;;;5.24;81.82;100277.47;5096889;28;20043;-73
2023/12/15 04:39:32;;;;;;;1.38;0.85;;;;;;;5.22;81.37;100279.09;5095529;28;20364;-73
2023/12/15 04:42:03;;;;;;;0.50;0.50;;;;;;;5.20;81.98;100285.78;5097049;28;20074;-73
2023/12/15 04:44:32;;;;;;;0.43;0.43;;;;;;;5.18;81.62;100287.38;5096918;28;20075;-72
2023/12/15 04:47:01;;;;;;;0.55;0.55;;;;;;;5.17;81.53;100288.22;5095325;28;20048;-72
2023/12/15 04:49:30;;;;;;;1.90;1.80;;;;;;;5.15;81.25;100286.47;5096529;28;20090;-72
2023/12/15 04:51:59;;;;;;;1.43;0.90;;;;;;;5.14;81.56;100283.06;5096916;28;20043;-72
2023/12/15 04:54:28;;;;;;;0.55;0.55;;;;;;;4.99;81.32;100261.50;5096264;28;20044;-72
2023/12/15 04:56:57;;;;;;;2.77;2.57;;;;;;;5.12;81.46;100288.88;5096352;28;20032;-73
2023/12/15 04:59:26;;;;;;;2.55;1.90;;;;;;;5.13;81.43;100299.06;5095210;28;20039;-74
2023/12/15 05:01:55;;;;;;;1.35;1.17;;;;;;;5.11;81.50;100313.31;5094969;28;20036;-72
2023/12/15 05:04:24;;;;;;;5.78;4.88;;;;;;;5.09;81.11;100312.41;5096540;28;20394;-73
2023/12/15 05:06:53;;;;;;;9.93;5.37;;;;;;;5.09;81.38;100322.53;5096163;28;20044;-73
2023/12/15 05:09:22;;;;;;;5.30;3.20;;;;;;;5.02;81.48;100315.56;5094643;28;20048;-73
2023/12/15 05:11:51;;;;;;;8.43;2.30;;;;;;;5.07;81.19;100334.28;5096311;28;20044;-73
2023/12/15 05:14:20;;;;;;;1.45;1.35;;;;;;;4.56;81.11;100247.50;5077794;28;20036;-73
2023/12/15 05:16:50;;;;;;;0.55;0.55;;;;;;;5.05;81.31;100338.44;5096134;28;20559;-72
2023/12/15 05:19:19;;;;;;;1.15;1.05;;;;;;;5.04;81.32;100349.34;5095015;28;20048;-72
2023/12/15 05:21:48;;;;;;;2.08;1.95;;;;;;;5.04;81.08;100349.34;5096041;28;20406;-72
2023/12/15 05:24:17;;;;;;;0.50;0.50;;;;;;;4.87;81.07;100340.34;5095936;28;20044;-73
2023/12/15 05:26:46;;;;;;;0.83;0.83;;;;;;;5.01;80.64;100359.41;5096133;28;20036;-72
2023/12/15 05:29:14;;;;;;;1.02;1.02;;;;;;;5.00;80.41;100357.66;5095911;28;20051;-72
2023/12/15 05:31:45;;;;;;;0.75;0.75;;;;;;;4.99;80.84;100355.94;5095494;28;20074;-72
2023/12/15 05:34:15;;;;;;;1.75;1.33;;;;;;;5.00;80.14;100367.78;5095792;28;20064;-73
2023/12/15 05:36:44;;;;;;;1.80;1.25;;;;;;;5.00;80.16;100372.84;5095839;28;20130;-74
2023/12/15 05:39:14;;;;;;;0.60;0.60;;;;;;;5.00;80.01;100371.97;5095670;28;20039;-72
2023/12/15 05:41:43;;;;;;;1.15;1.05;;;;;;;5.03;79.87;100388.13;5094773;28;20048;-73
2023/12/15 05:44:13;;;;;;;1.58;1.10;;;;;;;5.00;79.61;100387.16;5095987;28;20052;-73
2023/12/15 05:46:42;;;;;;;0.90;0.83;;;;;;;5.00;79.46;100393.06;5095329;28;20433;-74
2023/12/15 05:49:13;;;;;;;1.20;1.15;;;;;;;5.01;79.39;100399.00;5095610;28;20101;-73
2023/12/15 05:51:48;;;;;;;0.85;0.85;;;;;;;5.01;78.99;100404.94;5094510;28;20048;-71
2023/12/15 05:54:16;;;;;;;0.93;0.93;;;;;;;4.98;78.89;100399.75;5095364;28;20040;-73
2023/12/15 05:56:45;;;;;;;0.60;0.60;;;;;;;5.00;78.58;100403.19;5095643;28;20040;-72
2023/12/15 05:59:14;;;;;;;1.23;1.00;;;;;;;5.01;78.47;100404.94;5095687;28;20040;-72
2023/12/15 06:01:43;;;;;;;10.90;2.83;;;;;;;4.98;77.94;100409.88;5095185;28;20048;-73
2023/12/15 06:04:12;;;;;;;5.40;2.83;;;;;;;5.02;78.19;100421.81;5094327;28;20074;-72
2023/12/15 06:06:40;;;;;;;0.67;0.67;;;;;;;5.00;77.99;100423.44;5095373;28;20089;-73
2023/12/15 06:09:11;;;;;;;0.30;0.30;;;;;;;4.98;77.91;100431.78;5095289;28;20032;-73
2023/12/15 06:11:41;;;;;;;0.65;0.65;;;;;;;4.95;77.93;100424.94;5095210;28;20083;-73
2023/12/15 06:14:11;;;;;;;1.23;1.13;;;;;;;4.99;77.59;100434.34;5094735;28;20101;-73
2023/12/15 06:16:40;;;;;;;0.80;0.80;;;;;;;4.96;77.49;100441.84;5093824;28;20089;-73
2023/12/15 06:19:08;;;;;;;1.83;1.27;;;;;;;4.92;77.66;100454.34;5094985;28;20061;-73
2023/12/15 06:21:37;;;;;;;4.18;1.95;;;;;;;4.92;77.35;100459.41;5095142;28;20145;-72
2023/12/15 06:24:07;;;;;;;1.20;1.10;;;;;;;4.88;77.54;100458.44;5094934;28;20039;-73
2023/12/15 06:26:37;;;;;;;;;;;;;;;4.87;77.58;100461.75;5095186;28;20557;-73
2023/12/15 06:29:06;;;;;;;0.70;0.70;;;;;;;4.86;77.62;100470.16;5095375;28;19920;-73
2023/12/15 06:31:34;;;;;;;2.10;1.97;;;;;;;4.85;77.70;100477.72;5094314;28;20087;-74
2023/12/15 06:34:04;;;;;;;1.13;1.05;;;;;;;4.83;77.66;100480.16;5093035;28;20474;-73
2023/12/15 06:36:33;;;;;;;11.90;2.50;;;;;;;4.81;77.58;100481.78;5093762;28;20051;-73
2023/12/15 06:39:01;;;;;;;0.50;0.50;;;;;;;4.83;77.53;100479.28;5094591;28;20416;-73
2023/12/15 06:41:30;;;;;;;2.03;1.93;;;;;;;4.83;77.34;100477.63;5094501;28;20410;-74
2023/12/15 06:44:01;;;;;;;1.65;1.55;;;;;;;4.82;77.37;100481.00;5094514;28;20032;-72
2023/12/15 06:46:30;;;;;;;1.23;1.13;;;;;;;4.83;77.27;100485.22;5094019;28;20097;-73
2023/12/15 06:49:00;;;;;;;1.23;1.13;;;;;;;4.85;77.22;100488.66;5094043;28;20044;-74
2023/12/15 06:51:29;;;;;;;1.65;1.55;;;;;;;4.81;76.88;100486.84;5094379;28;20067;-73
2023/12/15 06:53:58;;;;;;;0.90;0.90;;;;;;;4.83;77.10;100500.38;5094081;28;20051;-73
2023/12/15 06:56:27;;;;;;;1.70;1.60;;;;;;;4.81;76.34;100512.13;5093097;28;20054;-73
2023/12/15 06:58:56;;;;;;;0.43;0.43;;;;;;;4.81;76.83;100517.19;5094141;28;20036;-73
2023/12/15 07:01:26;;;;;;;0.90;0.90;;;;;;;4.81;76.71;100537.41;5093845;28;20292;-72
2023/12/15 07:03:55;;;;;;;0.63;0.63;;;;;;;4.80;76.71;100535.69;5094250;28;20052;-72
2023/12/15 07:06:23;;;;;;;1.37;1.27;;;;;;;4.80;76.44;100545.78;5093874;28;20048;-73
2023/12/15 07:08:54;;;;;;;3.17;1.13;;;;;;;4.74;76.35;100548.97;5093974;28;20151;-73
2023/12/15 07:11:23;;;;;;;1.08;1.05;;;;;;;4.79;76.15;100556.72;5094124;28;20142;-73
2023/12/15 07:13:52;;;;;;;2.53;2.33;;;;;;;4.81;76.10;100567.75;5093647;28;20046;-72
2023/12/15 07:16:21;;;;;;;0.70;0.70;;;;;;;4.84;75.57;100572.06;5092277;28;20329;-71
2023/12/15 07:18:51;;;;;;;0.55;0.55;;;;;;;4.84;75.22;100577.13;5093722;28;20052;-72
2023/12/15 07:21:21;;;;;;;1.48;1.38;;;;;;;4.79;74.65;100574.44;5093864;28;20494;-73
2023/12/15 07:23:49;;;;;;;0.43;0.43;;;;;;;4.83;74.38;100590.56;5093946;28;20532;-73
2023/12/15 07:26:18;;;;;;;1.40;0.70;;;;;;;4.83;74.50;100586.38;5093572;28;20518;-72
2023/12/15 07:28:47;;;;;;;1.45;1.35;;;;;;;4.80;74.40;100586.25;5092507;28;20276;-72
2023/12/15 07:31:16;;;;;;;0.40;0.40;;;;;;;4.83;74.04;100601.53;5093620;28;20384;-73
2023/12/15 07:33:45;;;;;;;0.90;0.87;;;;;;;4.85;74.04;100614.25;5093749;28;20107;-73
2023/12/15 07:36:16;;;;;;;0.65;0.65;;;;;;;4.84;73.65;100610.88;5093565;28;20036;-72
2023/12/15 07:38:45;;;;;;;1.08;0.98;;;;;;;4.86;73.49;100621.91;5094242;28;20567;-73
2023/12/15 07:41:14;;;;;;;0.60;0.60;;;;;;;4.87;73.64;100637.94;5094078;28;20071;-73
2023/12/15 07:43:42;;;;;;;3.83;1.53;;;;;;;4.86;72.58;100639.59;5092613;28;20036;-73
2023/12/15 07:46:18;;;;;;;1.42;0.95;;;;;;;4.86;72.17;100638.72;5092284;28;20429;-73
2023/12/15 07:48:47;;;;;;;0.55;0.55;;;;;;;4.92;72.13;100652.47;5093413;28;20044;-71
2023/12/15 07:51:19;;;;;;;1.15;1.05;;;;;;;4.93;71.94;100649.13;5093634;28;20131;-68
2023/12/15 07:53:49;;;;;;;0.68;0.68;;;;;;;4.89;71.68;100651.50;5094300;28;20090;-74
2023/12/15 07:56:21;;;;;;;;;;;;;;;4.93;71.14;100653.31;5093974;28;20334;-73
2023/12/15 07:58:51;;;;;;;0.50;0.50;;;;;;;4.92;71.36;100657.50;5093694;28;19924;-73
2023/12/15 08:01:21;;;;;;;0.90;0.90;;;;;;;4.94;71.06;100665.19;5093834;28;20036;-72
2023/12/15 08:03:52;;;;;;;0.90;0.90;;;;;;;4.94;70.82;100671.13;5093308;28;20440;-72
2023/12/15 08:06:23;;;;;;;4.90;1.05;;;;;;;4.90;70.70;100669.25;5093030;28;20501;-73
2023/12/15 08:08:52;;;;;;;1.48;1.38;;;;;;;4.91;70.35;100681.09;5092363;28;20071;-72
2023/12/15 08:11:22;;;;;;;1.17;1.10;;;;;;;4.92;70.46;100677.75;5093554;28;20505;-72
2023/12/15 08:13:51;;;;;;;0.98;0.95;;;;;;;4.94;70.46;100686.28;5093540;28;20048;-72
2023/12/15 08:16:21;;;;;;;0.90;0.90;;;;;;;4.96;70.36;100704.91;5093326;28;20486;-72
2023/12/15 08:18:50;;;;;;;1.33;1.27;;;;;;;4.97;70.16;100701.56;5093120;28;20436;-73
2023/12/15 08:21:19;;;;;;;0.93;0.80;;;;;;;4.99;69.81;100715.13;5093624;28;20048;-73
2023/12/15 08:23:49;;;;;;;0.67;0.67;;;;;;;5.00;69.67;100711.78;5093395;28;20039;-73
2023/12/15 08:26:23;;;;;;;0.55;0.55;;;;;;;4.97;69.26;100711.66;5092945;28;20116;-72
2023/12/15 08:28:54;;;;;;;0.65;0.65;;;;;;;5.04;69.58;100717.84;5111353;28;20409;-73
2023/12/15 08:31:24;;;;;;;1.58;1.25;;;;;;;5.03;68.88;100716.97;5115447;28;20061;-72
2023/12/15 08:33:54;;;;;;;0.40;0.40;;;;;;;4.84;68.60;100678.28;5117458;28;20054;-72
2023/12/15 08:36:23;;;;;;;;;;;;;;;5.12;68.59;100717.31;5116086;28;20066;-73
2023/12/15 08:38:53;;;;;;;0.95;0.90;;;;;;;5.17;68.32;100730.13;5117549;28;19926;-71
2023/12/15 08:41:22;;;;;;;1.10;1.02;;;;;;;5.18;68.35;100721.75;5117300;28;20044;-72
2023/12/15 08:43:51;;;;;;;1.23;1.13;;;;;;;5.23;67.90;100731.22;5117419;28;20039;-71
2023/12/15 08:46:19;;;;;;;0.53;0.53;;;;;;;5.29;67.45;100736.53;5117431;28;20135;-70
2023/12/15 08:48:49;;;;;;;0.60;0.60;;;;;;;5.38;67.75;100734.31;5116623;28;20043;-69
2023/12/15 08:51:18;;;;;;;;;;;;;;;5.50;66.80;100740.63;5117646;28;20063;-72
2023/12/15 08:53:47;;;;;;;0.30;0.30;;;;;;;5.63;66.89;100747.88;5116973;28;19930;-71
2023/12/15 08:56:17;;;;;;;0.50;0.50;;;;;;;5.69;66.41;100738.81;5116829;28;20089;-72
2023/12/15 08:58:47;;;;;;;0.50;0.50;;;;;;;5.78;65.94;100758.56;5116642;28;20420;-73
2023/12/15 09:01:15;;;;;;;0.73;0.73;;;;;;;5.72;65.39;100751.59;5116592;28;20398;-72
2023/12/15 09:03:44;;;;;;;0.43;0.43;;;;;;;5.81;65.26;100763.72;5117083;28;20563;-70
2023/12/15 09:06:14;;;;;;;2.23;1.63;;;;;;;5.77;65.41;100761.91;5116632;28;20050;-73
2023/12/15 09:08:56;;;;;;;1.65;1.05;;;;;;;5.78;65.47;100753.50;5116722;28;20282;-71
2023/12/15 09:11:27;;;;;;;0.65;0.65;;;;;;;5.79;64.72;100761.16;5116847;28;20067;-71
2023/12/15 09:13:57;;;;;;;0.40;0.40;;;;;;;5.81;64.60;100759.53;5116639;28;20112;-71
2023/12/15 09:16:26;;;;;;;0.90;0.85;;;;;;;5.74;64.19;100761.78;5116738;28;20485;-73
2023/12/15 09:18:54;;;;;;;0.60;0.60;;;;;;;5.72;64.21;100768.47;5116488;28;20038;-71
2023/12/15 09:21:23;;;;;;;0.20;0.20;;;;;;;5.76;64.53;100775.38;5116617;28;20031;-72
2023/12/15 09:23:56;;;;;;;0.53;0.53;;;;;;;5.77;64.84;100787.22;5116822;28;20032;-70
2023/12/15 09:26:27;;;;;;;0.82;0.82;;;;;;;5.76;63.72;100795.66;5116339;28;20047;-69
2023/12/15 09:28:57;;;;;;;0.50;0.50;;;;;;;5.70;62.88;100782.75;5116653;28;20044;-71
2023/12/15 09:31:25;;;;;;;0.50;0.50;;;;;;;5.86;63.15;100810.38;5114861;28;20083;-72
2023/12/15 09:33:54;;;;;;;0.30;0.30;;;;;;;5.85;62.75;100796.00;5116122;28;20035;-72
2023/12/15 09:36:24;;;;;;;0.53;0.53;;;;;;;5.96;62.30;100812.44;5116330;28;20071;-72
2023/12/15 09:38:53;;;;;;;0.73;0.68;;;;;;;6.06;61.43;100822.09;5116007;28;20040;-71
2023/12/15 09:41:22;;;;;;;0.73;0.73;;;;;;;6.23;61.40;100815.97;5114973;28;20118;-71
2023/12/15 09:43:53;;;;;;;0.50;0.50;;;;;;;6.39;60.86;100813.13;5115956;28;20281;-70
2023/12/15 09:46:22;;;;;;;0.40;0.40;;;;;;;6.48;59.74;100821.03;5115967;28;20043;-70
2023/12/15 09:48:51;;;;;;;0.60;0.60;;;;;;;6.63;60.47;100813.94;5116002;28;20024;-67
2023/12/15 09:51:24;;;;;;;0.38;0.38;;;;;;;6.69;59.41;100813.31;5115948;28;20047;-70
2023/12/15 09:53:53;;;;;;;0.45;0.45;;;;;;;6.77;59.32;100821.16;5115903;28;20046;-72
2023/12/15 09:56:23;;;;;;;0.55;0.55;;;;;;;6.80;58.38;100823.78;5097818;28;20493;-73
2023/12/15 09:58:54;;;;;;;;;;;;;;;6.72;57.56;100816.78;5115232;28;20036;-72
2023/12/15 10:01:23;;;;;;;0.50;0.50;;;;;;;6.83;57.74;100816.28;5115618;28;20353;-71
2023/12/15 10:03:53;;;;;;;0.40;0.40;;;;;;;6.83;57.84;100826.44;5115700;28;20081;-71
2023/12/15 10:06:22;;;;;;;0.40;0.40;;;;;;;6.98;57.51;100816.78;5115528;28;20054;-71
2023/12/15 10:08:51;;;;;;;1.27;0.93;;;;;;;6.96;56.75;100833.63;5115388;28;20035;-72
2023/12/15 10:11:33;;;;;;;0.57;0.57;;;;;;;6.97;56.47;100830.28;5114195;28;20502;-68
2023/12/15 10:14:07;;;;;;;0.22;0.22;;;;;;;6.87;56.15;100840.94;5115233;28;20047;-69
2023/12/15 10:16:37;;;;;;;0.75;0.75;;;;;;;6.87;56.16;100838.38;5113890;28;20047;-71
2023/12/15 10:19:07;;;;;;;0.28;0.28;;;;;;;6.87;56.17;100843.47;5115348;27;20048;-69
2023/12/15 10:21:37;;;;;;;0.88;0.88;;;;;;;6.75;55.76;100851.53;5115310;28;20070;-72
2023/12/15 10:24:19;;;;;;;0.20;0.20;;;;;;;6.90;55.19;100849.53;5113525;28;20059;-72
2023/12/15 10:26:49;;;;;;;4.43;0.68;;;;;;;6.88;54.71;100853.69;5114812;28;20489;-73
2023/12/15 10:29:21;;;;;;;0.52;0.52;;;;;;;6.87;55.41;100858.69;5115107;28;20047;-70
2023/12/15 10:31:51;;;;;;;1.13;0.98;;;;;;;6.85;54.62;100857.78;5114558;28;20136;-72
2023/12/15 10:34:24;;;;;;;0.60;0.60;;;;;;;6.89;55.15;100862.13;5115415;28;20043;-72
2023/12/15 10:36:55;;;;;;;0.77;0.77;;;;;;;6.66;54.52;100849.56;5114941;28;20093;-70
2023/12/15 10:39:25;;;;;;;0.40;0.40;;;;;;;6.54;55.35;100871.13;5114983;28;20043;-71
2023/12/15 10:41:56;;;;;;;0.55;0.55;;;;;;;6.54;55.71;100884.66;5115221;28;20040;-70
2023/12/15 10:44:28;;;;;;;1.00;0.93;;;;;;;6.47;55.72;100884.41;5114880;28;20134;-72
2023/12/15 10:46:59;;;;;;;0.50;0.50;;;;;;;6.50;55.79;100892.97;5113642;28;20039;-71
2023/12/15 10:49:30;;;;;;;0.50;0.50;;;;;;;6.49;56.67;100887.84;5115198;28;20130;-72
2023/12/15 10:52:12;;;;;;;0.30;0.30;;;;;;;6.41;55.88;100882.50;5112934;28;20051;-72
2023/12/15 10:54:43;;;;;;;0.57;0.57;;;;;;;6.42;56.06;100883.38;5096429;28;20047;-69
2023/12/15 10:57:12;;;;;;;0.55;0.55;;;;;;;6.37;55.85;100890.81;5114529;28;20086;-72
2023/12/15 10:59:43;;;;;;;0.40;0.40;;;;;;;6.52;57.41;100893.03;5114034;28;20209;-72
2023/12/15 11:02:14;;;;;;;0.60;0.60;;;;;;;6.58;56.42;100899.16;5114535;28;20138;-71
2023/12/15 11:04:43;;;;;;;0.30;0.30;;;;;;;6.65;55.70;100895.16;5113102;28;20054;-70
2023/12/15 11:07:12;;;;;;;0.40;0.40;;;;;;;6.74;55.70;100903.13;5114321;28;20040;-71
2023/12/15 11:09:41;;;;;;;0.43;0.43;;;;;;;6.71;55.15;100896.25;5114497;28;20042;-70
2023/12/15 11:12:22;;;;;;;0.28;0.28;;;;;;;6.62;55.07;100913.69;5114180;28;20082;-70
2023/12/15 11:14:59;;;;;;;0.93;0.93;;;;;;;6.44;55.08;100905.44;5114413;28;20043;-71
2023/12/15 11:17:29;;;;;;;1.15;1.05;;;;;;;6.60;55.46;100920.38;5114484;28;20489;-72
2023/12/15 11:20:06;;;;;;;0.32;0.32;;;;;;;6.58;56.82;100929.59;5114607;28;20445;-71
2023/12/15 11:22:49;;;;;;;0.30;0.30;;;;;;;6.68;56.08;100933.31;5114144;28;20432;-72
2023/12/15 11:25:19;;;;;;;0.55;0.55;;;;;;;6.91;55.95;100941.75;5114336;28;20069;-71
2023/12/15 11:28:00;;;;;;;0.63;0.63;;;;;;;7.00;55.72;100942.91;5113951;28;20123;-71
2023/12/15 11:30:34;;;;;;;0.30;0.30;;;;;;;6.79;54.51;100934.56;5114096;28;20069;-73
2023/12/15 11:33:29;;;;;;;0.50;0.50;;;;;;;6.80;55.45;100937.97;5113941;28;20077;-71
2023/12/15 11:36:01;;;;;;;1.02;1.02;;;;;;;6.76;55.13;100942.06;5114107;28;20089;-71
2023/12/15 11:38:30;;;;;;;0.60;0.60;;;;;;;6.64;55.58;100932.38;5113893;28;20040;-71
2023/12/15 11:41:00;;;;;;;0.77;0.77;;;;;;;6.60;55.73;100943.19;5114058;28;20085;-72
2023/12/15 11:43:31;;;;;;;0.60;0.60;;;;;;;6.61;55.78;100937.34;5114153;28;20046;-73
2023/12/15 11:46:03;;;;;;;0.77;0.70;;;;;;;6.72;55.61;100951.25;5113796;28;20100;-72
2023/12/15 11:48:34;;;;;;;0.47;0.47;;;;;;;6.81;54.96;100949.84;5114057;28;20054;-72